PWSweather.com
Personal Weather Stations
Station Observations
KOMOKA
Komoka Village, Komoka, ON N0L IRO

Komoka VillageKomoka, ON N0L IRO

Lat: 42.9542444, Lon: -81.4348861

Elevation: 805

Station Type: Davis Vantage Pro 2

Latest ConditionsUpdated 1:21:37 PM EDT Monday, Mar 30, 2015
Currently Today's Max Today's Min Today's Average
Temperature 46.2°F7.9°C 48.4°F9.1°C 36.5°F2.5°C 39.9°F4.4°C
Dew Point 34.0°F1.1°C 35.4°F1.9°C 32.4°F0.2°C 33.7°F0.9°C
Winds 11.0 mph WNW17.7 kmh WNW 13.0 mph W20.9 kmh W - 9.1 mph 14.6 kmh
Wind Gusts 25.0 mph40.2 kmh 29.0 mph46.7 kmh - -
Humidity 62% 87% 57% 79%
Pressure 29.84 in1010.5 mb 29.85 in1010.8 mb 29.69 in1005.4 mb -
Precipitation - 0.02 in0.5 mm - -
Hour Temp Dew Point Humidity Winds Wind Gusts Pressure Precip Precip Rate Daily Precip Total
01:21 PM 46.2°F7.9°C 34.0°F1.1°C 62% 11.0 mph WNW17.7 kmh WNW 25.0 mph40.2 kmh 29.84 in1010.5 mb 0.00 in0.0 mm 0.00 in0.0 mm 0.02 in0.5 mm
01:14 PM 46.8°F8.2°C 33.6°F0.9°C 60% 8.0 mph WNW12.9 kmh WNW 19.0 mph30.6 kmh 29.84 in1010.5 mb 0.00 in0.0 mm 0.00 in0.0 mm 0.02 in0.5 mm
01:07 PM 47.1°F8.4°C 34.0°F1.1°C 60% 9.0 mph WNW14.5 kmh WNW 23.0 mph37.0 kmh 29.84 in1010.5 mb 0.00 in0.0 mm 0.00 in0.0 mm 0.02 in0.5 mm
01:00 PM 47.8°F8.8°C 33.3°F0.7°C 57% 11.0 mph WNW17.7 kmh WNW 23.0 mph37.0 kmh 29.84 in1010.5 mb 0.00 in0.0 mm 0.00 in0.0 mm 0.02 in0.5 mm
12:53 PM 47.7°F8.7°C 34.0°F1.1°C 59% 11.0 mph WNW17.7 kmh WNW 24.0 mph38.6 kmh 29.84 in1010.5 mb 0.00 in0.0 mm 0.00 in0.0 mm 0.02 in0.5 mm
12:46 PM 48.0°F8.9°C 34.0°F1.1°C 58% 12.0 mph W19.3 kmh W 24.0 mph38.6 kmh 29.83 in1010.2 mb 0.00 in0.0 mm 0.00 in0.0 mm 0.02 in0.5 mm
12:39 PM 48.4°F9.1°C 34.3°F1.3°C 58% 13.0 mph WNW20.9 kmh WNW 25.0 mph40.2 kmh 29.84 in1010.5 mb 0.00 in0.0 mm 0.00 in0.0 mm 0.02 in0.5 mm
12:32 PM 47.7°F8.7°C 34.0°F1.1°C 59% 13.0 mph W20.9 kmh W 28.0 mph45.1 kmh 29.85 in1010.8 mb 0.00 in0.0 mm 0.00 in0.0 mm 0.02 in0.5 mm
12:25 PM 47.5°F8.6°C 33.8°F1.0°C 59% 9.0 mph WNW14.5 kmh WNW 24.0 mph38.6 kmh 29.84 in1010.5 mb 0.00 in0.0 mm 0.00 in0.0 mm 0.02 in0.5 mm
12:18 PM 46.9°F8.3°C 33.8°F1.0°C 60% 9.0 mph W14.5 kmh W 21.0 mph33.8 kmh 29.85 in1010.8 mb 0.00 in0.0 mm 0.00 in0.0 mm 0.02 in0.5 mm
12:11 PM 46.0°F7.8°C 33.3°F0.7°C 61% 11.0 mph WNW17.7 kmh WNW 21.0 mph33.8 kmh 29.85 in1010.8 mb 0.00 in0.0 mm 0.00 in0.0 mm 0.02 in0.5 mm
12:04 PM 46.4°F8.0°C 34.2°F1.2°C 62% 11.0 mph WNW17.7 kmh WNW 29.0 mph46.7 kmh 29.85 in1010.8 mb 0.00 in0.0 mm 0.00 in0.0 mm 0.02 in0.5 mm
11:57 AM 46.4°F8.0°C 35.2°F1.8°C 65% 11.0 mph WNW17.7 kmh WNW 21.0 mph33.8 kmh 29.85 in1010.8 mb 0.00 in0.0 mm 0.00 in0.0 mm 0.02 in0.5 mm
11:50 AM 46.0°F7.8°C 34.5°F1.4°C 64% 11.0 mph WNW17.7 kmh WNW 25.0 mph40.2 kmh 29.85 in1010.8 mb 0.00 in0.0 mm 0.00 in0.0 mm 0.02 in0.5 mm
11:43 AM 46.2°F7.9°C 35.4°F1.9°C 66% 7.0 mph WNW11.3 kmh WNW 16.0 mph25.7 kmh 29.85 in1010.8 mb 0.00 in0.0 mm 0.00 in0.0 mm 0.02 in0.5 mm
11:36 AM 45.5°F7.5°C 35.2°F1.8°C 67% 9.0 mph WNW14.5 kmh WNW 17.0 mph27.4 kmh 29.85 in1010.8 mb 0.00 in0.0 mm 0.00 in0.0 mm 0.02 in0.5 mm
11:29 AM 45.1°F7.3°C 34.9°F1.6°C 67% 12.0 mph WNW19.3 kmh WNW 23.0 mph37.0 kmh 29.85 in1010.8 mb 0.00 in0.0 mm 0.00 in0.0 mm 0.02 in0.5 mm
11:22 AM 45.0°F7.2°C 35.1°F1.7°C 68% 9.0 mph WNW14.5 kmh WNW 23.0 mph37.0 kmh 29.85 in1010.8 mb 0.00 in0.0 mm 0.00 in0.0 mm 0.02 in0.5 mm
11:15 AM 44.8°F7.1°C 35.1°F1.7°C 69% 11.0 mph WNW17.7 kmh WNW 23.0 mph37.0 kmh 29.85 in1010.8 mb 0.00 in0.0 mm 0.00 in0.0 mm 0.02 in0.5 mm
11:08 AM 44.2°F6.8°C 34.7°F1.5°C 69% 9.0 mph WNW14.5 kmh WNW 23.0 mph37.0 kmh 29.85 in1010.8 mb 0.00 in0.0 mm 0.00 in0.0 mm 0.02 in0.5 mm
11:01 AM 44.2°F6.8°C 34.7°F1.5°C 69% 11.0 mph WNW17.7 kmh WNW 20.0 mph32.2 kmh 29.85 in1010.8 mb 0.00 in0.0 mm 0.00 in0.0 mm 0.02 in0.5 mm
10:54 AM 43.7°F6.5°C 34.9°F1.6°C 71% 11.0 mph WNW17.7 kmh WNW 20.0 mph32.2 kmh 29.85 in1010.8 mb 0.00 in0.0 mm 0.00 in0.0 mm 0.02 in0.5 mm
10:47 AM 43.3°F6.3°C 34.5°F1.4°C 71% 11.0 mph WNW17.7 kmh WNW 20.0 mph32.2 kmh 29.85 in1010.8 mb 0.00 in0.0 mm 0.00 in0.0 mm 0.02 in0.5 mm
10:40 AM 42.6°F5.9°C 34.3°F1.3°C 72% 11.0 mph WNW17.7 kmh WNW 25.0 mph40.2 kmh 29.85 in1010.8 mb 0.00 in0.0 mm 0.00 in0.0 mm 0.02 in0.5 mm
10:33 AM 42.1°F5.6°C 33.8°F1.0°C 72% 11.0 mph WNW17.7 kmh WNW 25.0 mph40.2 kmh 29.84 in1010.5 mb 0.00 in0.0 mm 0.00 in0.0 mm 0.02 in0.5 mm
10:26 AM 42.3°F5.7°C 33.3°F0.7°C 70% 12.0 mph WNW19.3 kmh WNW 27.0 mph43.5 kmh 29.85 in1010.8 mb 0.00 in0.0 mm 0.00 in0.0 mm 0.02 in0.5 mm
10:19 AM 42.4°F5.8°C 34.2°F1.2°C 72% 9.0 mph WNW14.5 kmh WNW 19.0 mph30.6 kmh 29.84 in1010.5 mb 0.00 in0.0 mm 0.00 in0.0 mm 0.02 in0.5 mm
10:12 AM 42.1°F5.6°C 33.8°F1.0°C 72% 12.0 mph WNW19.3 kmh WNW 24.0 mph38.6 kmh 29.84 in1010.5 mb 0.00 in0.0 mm 0.00 in0.0 mm 0.02 in0.5 mm
10:05 AM 41.5°F5.3°C 33.3°F0.7°C 72% 12.0 mph WNW19.3 kmh WNW 20.0 mph32.2 kmh 29.84 in1010.5 mb 0.00 in0.0 mm 0.00 in0.0 mm 0.02 in0.5 mm
09:58 AM 41.2°F5.1°C 33.1°F0.6°C 73% 13.0 mph WNW20.9 kmh WNW 21.0 mph33.8 kmh 29.84 in1010.5 mb 0.00 in0.0 mm 0.00 in0.0 mm 0.02 in0.5 mm
09:51 AM 40.6°F4.8°C 33.1°F0.6°C 74% 13.0 mph WNW20.9 kmh WNW 25.0 mph40.2 kmh 29.84 in1010.5 mb 0.00 in0.0 mm 0.00 in0.0 mm 0.02 in0.5 mm
09:44 AM 40.3°F4.6°C 33.3°F0.7°C 76% 12.0 mph WNW19.3 kmh WNW 25.0 mph40.2 kmh 29.84 in1010.5 mb 0.00 in0.0 mm 0.00 in0.0 mm 0.02 in0.5 mm
09:37 AM 39.9°F4.4°C 33.4°F0.8°C 77% 11.0 mph WNW17.7 kmh WNW 24.0 mph38.6 kmh 29.83 in1010.2 mb 0.00 in0.0 mm 0.00 in0.0 mm 0.02 in0.5 mm
09:30 AM 39.7°F4.3°C 33.4°F0.8°C 78% 8.0 mph WNW12.9 kmh WNW 20.0 mph32.2 kmh 29.83 in1010.2 mb 0.00 in0.0 mm 0.00 in0.0 mm 0.02 in0.5 mm
09:23 AM 39.6°F4.2°C 33.4°F0.8°C 79% 11.0 mph WNW17.7 kmh WNW 24.0 mph38.6 kmh 29.83 in1010.2 mb 0.00 in0.0 mm 0.00 in0.0 mm 0.02 in0.5 mm
09:16 AM 39.0°F3.9°C 32.9°F0.5°C 78% 9.0 mph WNW14.5 kmh WNW 19.0 mph30.6 kmh 29.83 in1010.2 mb 0.00 in0.0 mm 0.00 in0.0 mm 0.02 in0.5 mm
09:09 AM 39.0°F3.9°C 33.1°F0.6°C 79% 9.0 mph WNW14.5 kmh WNW 21.0 mph33.8 kmh 29.82 in1009.8 mb 0.00 in0.0 mm 0.00 in0.0 mm 0.02 in0.5 mm
09:02 AM 39.0°F3.9°C 33.1°F0.6°C 79% 11.0 mph WNW17.7 kmh WNW 21.0 mph33.8 kmh 29.82 in1009.8 mb 0.00 in0.0 mm 0.00 in0.0 mm 0.02 in0.5 mm
08:55 AM 39.0°F3.9°C 33.4°F0.8°C 80% 11.0 mph WNW17.7 kmh WNW 20.0 mph32.2 kmh 29.82 in1009.8 mb 0.00 in0.0 mm 0.00 in0.0 mm 0.02 in0.5 mm
08:48 AM 38.5°F3.6°C 33.3°F0.7°C 81% 11.0 mph WNW17.7 kmh WNW 20.0 mph32.2 kmh 29.82 in1009.8 mb 0.00 in0.0 mm 0.00 in0.0 mm 0.02 in0.5 mm
08:41 AM 38.1°F3.4°C 33.1°F0.6°C 82% 8.0 mph WNW12.9 kmh WNW 17.0 mph27.4 kmh 29.81 in1009.5 mb 0.00 in0.0 mm 0.00 in0.0 mm 0.02 in0.5 mm
08:34 AM 37.9°F3.3°C 32.9°F0.5°C 82% 7.0 mph WNW11.3 kmh WNW 15.0 mph24.1 kmh 29.81 in1009.5 mb 0.00 in0.0 mm 0.00 in0.0 mm 0.02 in0.5 mm
08:27 AM 37.8°F3.2°C 32.7°F0.4°C 82% 7.0 mph WNW11.3 kmh WNW 15.0 mph24.1 kmh 29.81 in1009.5 mb 0.00 in0.0 mm 0.00 in0.0 mm 0.02 in0.5 mm
08:20 AM 37.6°F3.1°C 32.9°F0.5°C 83% 7.0 mph WNW11.3 kmh WNW 16.0 mph25.7 kmh 29.80 in1009.1 mb 0.00 in0.0 mm 0.00 in0.0 mm 0.02 in0.5 mm
08:13 AM 37.8°F3.2°C 33.1°F0.6°C 83% 8.0 mph WNW12.9 kmh WNW 16.0 mph25.7 kmh 29.80 in1009.1 mb 0.00 in0.0 mm 0.00 in0.0 mm 0.02 in0.5 mm
08:06 AM 37.4°F3.0°C 33.1°F0.6°C 84% 8.0 mph W12.9 kmh W 16.0 mph25.7 kmh 29.80 in1009.1 mb 0.00 in0.0 mm 0.00 in0.0 mm 0.02 in0.5 mm
07:59 AM 37.0°F2.8°C 32.7°F0.4°C 84% 7.0 mph WNW11.3 kmh WNW 17.0 mph27.4 kmh 29.80 in1009.1 mb 0.00 in0.0 mm 0.00 in0.0 mm 0.02 in0.5 mm
07:52 AM 36.9°F2.7°C 32.9°F0.5°C 85% 7.0 mph W11.3 kmh W 17.0 mph27.4 kmh 29.80 in1009.1 mb 0.00 in0.0 mm 0.00 in0.0 mm 0.02 in0.5 mm
07:45 AM 36.9°F2.7°C 32.7°F0.4°C 85% 7.0 mph W11.3 kmh W 17.0 mph27.4 kmh 29.79 in1008.8 mb 0.00 in0.0 mm 0.00 in0.0 mm 0.02 in0.5 mm
07:38 AM 36.7°F2.6°C 32.5°F0.3°C 85% 7.0 mph W11.3 kmh W 13.0 mph20.9 kmh 29.79 in1008.8 mb 0.00 in0.0 mm 0.00 in0.0 mm 0.02 in0.5 mm
07:31 AM 36.9°F2.7°C 32.7°F0.4°C 85% 7.0 mph W11.3 kmh W 19.0 mph30.6 kmh 29.79 in1008.8 mb 0.00 in0.0 mm 0.00 in0.0 mm 0.02 in0.5 mm
07:24 AM 36.9°F2.7°C 32.7°F0.4°C 85% 7.0 mph W11.3 kmh W 19.0 mph30.6 kmh 29.78 in1008.5 mb 0.00 in0.0 mm 0.00 in0.0 mm 0.02 in0.5 mm
07:17 AM 36.9°F2.7°C 32.4°F0.2°C 84% 7.0 mph WNW11.3 kmh WNW 15.0 mph24.1 kmh 29.78 in1008.5 mb 0.00 in0.0 mm 0.00 in0.0 mm 0.02 in0.5 mm
07:10 AM 36.9°F2.7°C 32.4°F0.2°C 84% 7.0 mph W11.3 kmh W 15.0 mph24.1 kmh 29.78 in1008.5 mb 0.00 in0.0 mm 0.00 in0.0 mm 0.02 in0.5 mm
07:03 AM 37.0°F2.8°C 32.5°F0.3°C 84% 7.0 mph W11.3 kmh W 20.0 mph32.2 kmh 29.78 in1008.5 mb 0.00 in0.0 mm 0.00 in0.0 mm 0.02 in0.5 mm
06:56 AM 37.0°F2.8°C 32.4°F0.2°C 83% 7.0 mph W11.3 kmh W 20.0 mph32.2 kmh 29.77 in1008.1 mb 0.00 in0.0 mm 0.00 in0.0 mm 0.02 in0.5 mm
06:49 AM 37.2°F2.9°C 32.5°F0.3°C 83% 7.0 mph WNW11.3 kmh WNW 16.0 mph25.7 kmh 29.77 in1008.1 mb 0.00 in0.0 mm 0.00 in0.0 mm 0.02 in0.5 mm
06:42 AM 37.6°F3.1°C 32.5°F0.3°C 82% 7.0 mph WNW11.3 kmh WNW 16.0 mph25.7 kmh 29.77 in1008.1 mb 0.00 in0.0 mm 0.00 in0.0 mm 0.02 in0.5 mm
06:35 AM 37.9°F3.3°C 32.9°F0.5°C 82% 9.0 mph WNW14.5 kmh WNW 19.0 mph30.6 kmh 29.77 in1008.1 mb 0.00 in0.0 mm 0.00 in0.0 mm 0.02 in0.5 mm
06:28 AM 37.9°F3.3°C 33.1°F0.6°C 82% 9.0 mph WNW14.5 kmh WNW 19.0 mph30.6 kmh 29.76 in1007.8 mb 0.00 in0.0 mm 0.00 in0.0 mm 0.02 in0.5 mm
06:21 AM 38.1°F3.4°C 33.3°F0.7°C 82% 9.0 mph WNW14.5 kmh WNW 20.0 mph32.2 kmh 29.76 in1007.8 mb 0.00 in0.0 mm 0.00 in0.0 mm 0.02 in0.5 mm
06:14 AM 38.3°F3.5°C 33.3°F0.7°C 82% 7.0 mph WNW11.3 kmh WNW 17.0 mph27.4 kmh 29.76 in1007.8 mb 0.00 in0.0 mm 0.00 in0.0 mm 0.02 in0.5 mm
06:07 AM 38.3°F3.5°C 33.3°F0.7°C 82% 8.0 mph WNW12.9 kmh WNW 17.0 mph27.4 kmh 29.75 in1007.5 mb 0.00 in0.0 mm 0.00 in0.0 mm 0.02 in0.5 mm
06:00 AM 38.3°F3.5°C 33.3°F0.7°C 82% 9.0 mph WNW14.5 kmh WNW 19.0 mph30.6 kmh 29.75 in1007.5 mb 0.00 in0.0 mm 0.00 in0.0 mm 0.02 in0.5 mm
05:53 AM 38.3°F3.5°C 33.3°F0.7°C 82% 9.0 mph WNW14.5 kmh WNW 19.0 mph30.6 kmh 29.75 in1007.5 mb 0.00 in0.0 mm 0.00 in0.0 mm 0.02 in0.5 mm
05:46 AM 38.1°F3.4°C 33.3°F0.7°C 82% 8.0 mph WNW12.9 kmh WNW 19.0 mph30.6 kmh 29.74 in1007.1 mb 0.00 in0.0 mm 0.00 in0.0 mm 0.02 in0.5 mm
05:39 AM 38.1°F3.4°C 33.1°F0.6°C 82% 9.0 mph WNW14.5 kmh WNW 25.0 mph40.2 kmh 29.74 in1007.1 mb 0.00 in0.0 mm 0.00 in0.0 mm 0.02 in0.5 mm
05:32 AM 38.1°F3.4°C 33.1°F0.6°C 82% 8.0 mph WNW12.9 kmh WNW 20.0 mph32.2 kmh 29.74 in1007.1 mb 0.00 in0.0 mm 0.00 in0.0 mm 0.02 in0.5 mm
05:25 AM 38.1°F3.4°C 32.9°F0.5°C 81% 8.0 mph WNW12.9 kmh WNW 20.0 mph32.2 kmh 29.73 in1006.8 mb 0.00 in0.0 mm 0.00 in0.0 mm 0.02 in0.5 mm
05:18 AM 38.5°F3.6°C 33.1°F0.6°C 81% 7.0 mph WNW11.3 kmh WNW 19.0 mph30.6 kmh 29.73 in1006.8 mb 0.00 in0.0 mm 0.00 in0.0 mm 0.02 in0.5 mm
05:11 AM 38.7°F3.7°C 33.3°F0.7°C 81% 9.0 mph WNW14.5 kmh WNW 23.0 mph37.0 kmh 29.73 in1006.8 mb 0.00 in0.0 mm 0.00 in0.0 mm 0.02 in0.5 mm
05:04 AM 38.7°F3.7°C 33.3°F0.7°C 81% 9.0 mph WNW14.5 kmh WNW 21.0 mph33.8 kmh 29.73 in1006.8 mb 0.00 in0.0 mm 0.00 in0.0 mm 0.02 in0.5 mm
04:57 AM 38.7°F3.7°C 33.6°F0.9°C 82% 8.0 mph WNW12.9 kmh WNW 19.0 mph30.6 kmh 29.73 in1006.8 mb 0.00 in0.0 mm 0.00 in0.0 mm 0.02 in0.5 mm
04:50 AM 38.7°F3.7°C 33.6°F0.9°C 82% 9.0 mph WNW14.5 kmh WNW 20.0 mph32.2 kmh 29.72 in1006.4 mb 0.00 in0.0 mm 0.00 in0.0 mm 0.02 in0.5 mm
04:43 AM 38.7°F3.7°C 33.6°F0.9°C 82% 9.0 mph WNW14.5 kmh WNW 21.0 mph33.8 kmh 29.72 in1006.4 mb 0.00 in0.0 mm 0.00 in0.0 mm 0.02 in0.5 mm
04:36 AM 38.8°F3.8°C 33.6°F0.9°C 81% 11.0 mph WNW17.7 kmh WNW 21.0 mph33.8 kmh 29.72 in1006.4 mb 0.00 in0.0 mm 0.00 in0.0 mm 0.02 in0.5 mm
04:29 AM 39.0°F3.9°C 33.6°F0.9°C 81% 11.0 mph WNW17.7 kmh WNW 19.0 mph30.6 kmh 29.72 in1006.4 mb 0.00 in0.0 mm 0.00 in0.0 mm 0.02 in0.5 mm
04:22 AM 39.2°F4.0°C 34.2°F1.2°C 82% 9.0 mph WNW14.5 kmh WNW 24.0 mph38.6 kmh 29.72 in1006.4 mb 0.00 in0.0 mm 0.00 in0.0 mm 0.02 in0.5 mm
04:15 AM 39.4°F4.1°C 34.3°F1.3°C 82% 12.0 mph WNW19.3 kmh WNW 27.0 mph43.5 kmh 29.71 in1006.1 mb 0.00 in0.0 mm 0.00 in0.0 mm 0.02 in0.5 mm
04:08 AM 39.4°F4.1°C 34.9°F1.6°C 84% 12.0 mph W19.3 kmh W 27.0 mph43.5 kmh 29.71 in1006.1 mb 0.00 in0.0 mm 0.00 in0.0 mm 0.02 in0.5 mm
04:01 AM 39.2°F4.0°C 35.1°F1.7°C 85% 12.0 mph W19.3 kmh W 24.0 mph38.6 kmh 29.71 in1006.1 mb 0.00 in0.0 mm 0.00 in0.0 mm 0.02 in0.5 mm
03:54 AM 39.2°F4.0°C 35.1°F1.7°C 85% 11.0 mph W17.7 kmh W 24.0 mph38.6 kmh 29.71 in1006.1 mb 0.00 in0.0 mm 0.00 in0.0 mm 0.02 in0.5 mm
03:47 AM 39.0°F3.9°C 35.2°F1.8°C 86% 9.0 mph W14.5 kmh W 25.0 mph40.2 kmh 29.70 in1005.8 mb 0.00 in0.0 mm 0.00 in0.0 mm 0.02 in0.5 mm
03:40 AM 39.0°F3.9°C 35.2°F1.8°C 86% 11.0 mph W17.7 kmh W 27.0 mph43.5 kmh 29.70 in1005.8 mb 0.00 in0.0 mm 0.00 in0.0 mm 0.02 in0.5 mm
03:33 AM 39.0°F3.9°C 35.2°F1.8°C 86% 9.0 mph W14.5 kmh W 27.0 mph43.5 kmh 29.70 in1005.8 mb 0.00 in0.0 mm 0.00 in0.0 mm 0.02 in0.5 mm
03:26 AM 39.0°F3.9°C 35.4°F1.9°C 87% 9.0 mph W14.5 kmh W 17.0 mph27.4 kmh 29.70 in1005.8 mb 0.00 in0.0 mm 0.00 in0.0 mm 0.02 in0.5 mm
03:19 AM 38.8°F3.8°C 35.4°F1.9°C 87% 9.0 mph W14.5 kmh W 17.0 mph27.4 kmh 29.70 in1005.8 mb 0.00 in0.0 mm 0.00 in0.0 mm 0.02 in0.5 mm
03:12 AM 38.8°F3.8°C 35.2°F1.8°C 87% 11.0 mph W17.7 kmh W 20.0 mph32.2 kmh 29.70 in1005.8 mb 0.00 in0.0 mm 0.00 in0.0 mm 0.02 in0.5 mm
03:05 AM 38.7°F3.7°C 35.1°F1.7°C 87% 12.0 mph W19.3 kmh W 24.0 mph38.6 kmh 29.70 in1005.8 mb 0.00 in0.0 mm 0.00 in0.0 mm 0.02 in0.5 mm
02:58 AM 38.5°F3.6°C 34.9°F1.6°C 87% 11.0 mph W17.7 kmh W 20.0 mph32.2 kmh 29.69 in1005.4 mb 0.00 in0.0 mm 0.00 in0.0 mm 0.02 in0.5 mm
02:51 AM 37.9°F3.3°C 34.5°F1.4°C 87% 9.0 mph W14.5 kmh W 19.0 mph30.6 kmh 29.69 in1005.4 mb 0.00 in0.0 mm 0.00 in0.0 mm 0.02 in0.5 mm
02:44 AM 37.8°F3.2°C 34.0°F1.1°C 86% 7.0 mph W11.3 kmh W 19.0 mph30.6 kmh 29.69 in1005.4 mb 0.00 in0.0 mm 0.00 in0.0 mm 0.02 in0.5 mm
02:37 AM 37.8°F3.2°C 33.8°F1.0°C 86% 7.0 mph WSW11.3 kmh WSW 19.0 mph30.6 kmh 29.69 in1005.4 mb 0.00 in0.0 mm 0.00 in0.0 mm 0.02 in0.5 mm
02:30 AM 37.6°F3.1°C 34.0°F1.1°C 87% 7.0 mph WSW11.3 kmh WSW 21.0 mph33.8 kmh 29.69 in1005.4 mb 0.00 in0.0 mm 0.00 in0.0 mm 0.02 in0.5 mm
02:23 AM 37.2°F2.9°C 33.8°F1.0°C 87% 5.0 mph WSW8.0 kmh WSW 19.0 mph30.6 kmh 29.69 in1005.4 mb 0.00 in0.0 mm 0.00 in0.0 mm 0.02 in0.5 mm
02:16 AM 37.2°F2.9°C 33.8°F1.0°C 87% 5.0 mph WSW8.0 kmh WSW 17.0 mph27.4 kmh 29.69 in1005.4 mb 0.01 in0.3 mm 0.00 in0.0 mm 0.02 in0.5 mm
02:09 AM 37.2°F2.9°C 33.6°F0.9°C 87% 7.0 mph WSW11.3 kmh WSW 19.0 mph30.6 kmh 29.69 in1005.4 mb 0.01 in0.3 mm 0.00 in0.0 mm 0.02 in0.5 mm
02:02 AM 37.0°F2.8°C 33.6°F0.9°C 87% 7.0 mph WSW11.3 kmh WSW 17.0 mph27.4 kmh 29.69 in1005.4 mb 0.01 in0.3 mm 0.00 in0.0 mm 0.02 in0.5 mm
01:55 AM 37.0°F2.8°C 33.4°F0.8°C 87% 7.0 mph WSW11.3 kmh WSW 20.0 mph32.2 kmh 29.69 in1005.4 mb 0.01 in0.3 mm 0.00 in0.0 mm 0.02 in0.5 mm
01:48 AM 36.9°F2.7°C 33.3°F0.7°C 87% 7.0 mph WSW11.3 kmh WSW 23.0 mph37.0 kmh 29.70 in1005.8 mb 0.01 in0.3 mm 0.00 in0.0 mm 0.02 in0.5 mm
01:41 AM 36.7°F2.6°C 33.3°F0.7°C 87% 5.0 mph WSW8.0 kmh WSW 23.0 mph37.0 kmh 29.70 in1005.8 mb 0.02 in0.5 mm 0.00 in0.0 mm 0.02 in0.5 mm
01:34 AM 36.7°F2.6°C 33.3°F0.7°C 87% 7.0 mph WSW11.3 kmh WSW 17.0 mph27.4 kmh 29.70 in1005.8 mb 0.02 in0.5 mm 0.00 in0.0 mm 0.02 in0.5 mm
01:27 AM 36.7°F2.6°C 33.1°F0.6°C 87% 7.0 mph SW11.3 kmh SW 17.0 mph27.4 kmh 29.70 in1005.8 mb 0.02 in0.5 mm 0.00 in0.0 mm 0.02 in0.5 mm
01:20 AM 36.5°F2.5°C 32.7°F0.4°C 86% 7.0 mph SW11.3 kmh SW 23.0 mph37.0 kmh 29.71 in1006.1 mb 0.02 in0.5 mm 0.09 in2.3 mm 0.02 in0.5 mm
01:13 AM 36.5°F2.5°C 33.1°F0.6°C 87% 8.0 mph WSW12.9 kmh WSW 23.0 mph37.0 kmh 29.72 in1006.4 mb 0.01 in0.3 mm 0.00 in0.0 mm 0.01 in0.3 mm
01:06 AM 36.7°F2.6°C 33.1°F0.6°C 87% 8.0 mph WSW12.9 kmh WSW 19.0 mph30.6 kmh 29.72 in1006.4 mb 0.01 in0.3 mm 0.00 in0.0 mm 0.01 in0.3 mm
12:59 AM 36.7°F2.6°C 33.3°F0.7°C 87% 7.0 mph WSW11.3 kmh WSW 16.0 mph25.7 kmh 29.73 in1006.8 mb 0.01 in0.3 mm 0.00 in0.0 mm 0.01 in0.3 mm
12:52 AM 36.9°F2.7°C 33.4°F0.8°C 87% 9.0 mph SW14.5 kmh SW 21.0 mph33.8 kmh 29.73 in1006.8 mb 0.01 in0.3 mm 0.00 in0.0 mm 0.01 in0.3 mm
12:45 AM 37.2°F2.9°C 33.4°F0.8°C 86% 8.0 mph SW12.9 kmh SW 27.0 mph43.5 kmh 29.73 in1006.8 mb 0.01 in0.3 mm 0.09 in2.3 mm 0.01 in0.3 mm
12:38 AM 37.6°F3.1°C 33.4°F0.8°C 85% 8.0 mph SW12.9 kmh SW 27.0 mph43.5 kmh 29.74 in1007.1 mb 0.00 in0.0 mm 0.00 in0.0 mm 0.00 in0.0 mm
12:31 AM 37.9°F3.3°C 33.4°F0.8°C 84% 8.0 mph WSW12.9 kmh WSW 21.0 mph33.8 kmh 29.74 in1007.1 mb 0.00 in0.0 mm 0.00 in0.0 mm 0.00 in0.0 mm
12:24 AM 38.1°F3.4°C 33.4°F0.8°C 83% 8.0 mph WSW12.9 kmh WSW 19.0 mph30.6 kmh 29.75 in1007.5 mb 0.00 in0.0 mm 0.00 in0.0 mm 0.00 in0.0 mm
12:17 AM 38.1°F3.4°C 33.3°F0.7°C 82% 9.0 mph WSW14.5 kmh WSW 23.0 mph37.0 kmh 29.75 in1007.5 mb 0.00 in0.0 mm 0.00 in0.0 mm 0.00 in0.0 mm
12:10 AM 38.5°F3.6°C 33.1°F0.6°C 81% 9.0 mph WSW14.5 kmh WSW 25.0 mph40.2 kmh 29.76 in1007.8 mb 0.00 in0.0 mm 0.00 in0.0 mm 0.00 in0.0 mm
12:03 AM 38.5°F3.6°C 33.1°F0.6°C 81% 9.0 mph WSW14.5 kmh WSW 28.0 mph45.1 kmh 29.76 in1007.8 mb 0.00 in0.0 mm 0.00 in0.0 mm 0.00 in0.0 mm